PWSweather.com
Personal Weather Stations
Station Observations
SD92115WX
El Cerrito Stoneybluff, San Diego, CA 92115

El Cerrito StoneybluffSan Diego, CA 92115

Lat: 32.754096, Lon: -117.066705

Elevation: 420

Station Type: Davis Vantage Vue

http://stoneybluff.com

High Low Average
Temperature 71.1°F21.7°C 57.4°F14.1°C 62.4°F16.9°C
Dew Point 58.8°F14.9°C 52.9°F11.6°C 55.6°F13.1°C
Winds 8.3 mph 13.4 kmh Calm Calm 2.0 mph WSW3.2 kmh WSW
Wind Gusts 14.8 mph23.8 kmh -- 5.0 mph8.0 kmh
Humidity 91% 60% 79%
Pressure 29.96 in1014.6 mb 29.90 in1012.5 mb -
Precipitation 0.00 in0.0 mm - -
Hour Temp Dew Point Humidity Winds Wind Gusts Pressure Precip Precip Rate Daily Precip Total
12:00 AM 58.6°F14.8°C 55.9°F13.3°C 91% Calm Calm -- 29.94 in1013.9 mb 0.00 in0.0 mm 0.00 in0.0 mm 0.00 in0.0 mm
12:05 AM 58.6°F14.8°C 55.9°F13.3°C 91% Calm Calm 2.0 mph3.2 kmh 29.95 in1014.2 mb 0.00 in0.0 mm 0.00 in0.0 mm 0.00 in0.0 mm
12:10 AM 58.6°F14.8°C 55.9°F13.3°C 91% Calm Calm -- 29.95 in1014.2 mb 0.00 in0.0 mm 0.00 in0.0 mm 0.00 in0.0 mm
12:15 AM 58.8°F14.9°C 56.1°F13.4°C 91% Calm Calm -- 29.94 in1013.9 mb 0.00 in0.0 mm 0.00 in0.0 mm 0.00 in0.0 mm
12:20 AM 58.6°F14.8°C 55.9°F13.3°C 91% Calm Calm -- 29.94 in1013.9 mb 0.00 in0.0 mm 0.00 in0.0 mm 0.00 in0.0 mm
12:25 AM 58.6°F14.8°C 55.9°F13.3°C 91% Calm Calm -- 29.94 in1013.9 mb 0.00 in0.0 mm 0.00 in0.0 mm 0.00 in0.0 mm
12:30 AM 58.6°F14.8°C 55.9°F13.3°C 91% Calm Calm -- 29.94 in1013.9 mb 0.00 in0.0 mm 0.00 in0.0 mm 0.00 in0.0 mm
12:35 AM 58.8°F14.9°C 56.1°F13.4°C 91% Calm Calm 1.1 mph1.8 kmh 29.94 in1013.9 mb 0.00 in0.0 mm 0.00 in0.0 mm 0.00 in0.0 mm
12:40 AM 58.8°F14.9°C 56.1°F13.4°C 91% 0.4 mph SSW0.6 kmh SSW 2.0 mph3.2 kmh 29.94 in1013.9 mb 0.00 in0.0 mm 0.00 in0.0 mm 0.00 in0.0 mm
12:45 AM 58.8°F14.9°C 56.1°F13.4°C 91% 2.0 mph SW3.2 kmh SW 3.1 mph5.0 kmh 29.94 in1013.9 mb 0.00 in0.0 mm 0.00 in0.0 mm 0.00 in0.0 mm
12:50 AM 58.6°F14.8°C 55.9°F13.3°C 91% Calm Calm 2.0 mph3.2 kmh 29.93 in1013.5 mb 0.00 in0.0 mm 0.00 in0.0 mm 0.00 in0.0 mm
12:55 AM 58.6°F14.8°C 55.9°F13.3°C 91% Calm Calm -- 29.94 in1013.9 mb 0.00 in0.0 mm 0.00 in0.0 mm 0.00 in0.0 mm
01:00 AM 58.6°F14.8°C 55.9°F13.3°C 91% 2.2 mph S3.5 kmh S 5.4 mph8.7 kmh 29.93 in1013.5 mb 0.00 in0.0 mm 0.00 in0.0 mm 0.00 in0.0 mm
01:05 AM 58.5°F14.7°C 55.8°F13.2°C 91% 2.2 mph WSW3.5 kmh WSW 4.3 mph6.9 kmh 29.93 in1013.5 mb 0.00 in0.0 mm 0.00 in0.0 mm 0.00 in0.0 mm
01:10 AM 58.5°F14.7°C 55.8°F13.2°C 91% 0.2 mph SW0.3 kmh SW 3.1 mph5.0 kmh 29.93 in1013.5 mb 0.00 in0.0 mm 0.00 in0.0 mm 0.00 in0.0 mm
01:15 AM 58.5°F14.7°C 55.8°F13.2°C 91% 0.4 mph SW0.6 kmh SW 2.0 mph3.2 kmh 29.93 in1013.5 mb 0.00 in0.0 mm 0.00 in0.0 mm 0.00 in0.0 mm
01:20 AM 58.5°F14.7°C 55.8°F13.2°C 91% 0.2 mph NW0.3 kmh NW 1.1 mph1.8 kmh 29.93 in1013.5 mb 0.00 in0.0 mm 0.00 in0.0 mm 0.00 in0.0 mm
01:25 AM 58.3°F14.6°C 55.6°F13.1°C 91% Calm Calm -- 29.93 in1013.5 mb 0.00 in0.0 mm 0.00 in0.0 mm 0.00 in0.0 mm
01:30 AM 58.3°F14.6°C 55.6°F13.1°C 91% Calm Calm -- 29.93 in1013.5 mb 0.00 in0.0 mm 0.00 in0.0 mm 0.00 in0.0 mm
01:35 AM 58.3°F14.6°C 55.6°F13.1°C 91% Calm Calm -- 29.93 in1013.5 mb 0.00 in0.0 mm 0.00 in0.0 mm 0.00 in0.0 mm
01:40 AM 58.3°F14.6°C 55.6°F13.1°C 91% Calm Calm -- 29.93 in1013.5 mb 0.00 in0.0 mm 0.00 in0.0 mm 0.00 in0.0 mm
01:45 AM 58.5°F14.7°C 55.8°F13.2°C 91% Calm Calm -- 29.93 in1013.5 mb 0.00 in0.0 mm 0.00 in0.0 mm 0.00 in0.0 mm
01:50 AM 58.5°F14.7°C 55.8°F13.2°C 91% Calm Calm -- 29.93 in1013.5 mb 0.00 in0.0 mm 0.00 in0.0 mm 0.00 in0.0 mm
01:55 AM 58.5°F14.7°C 55.8°F13.2°C 91% Calm Calm -- 29.93 in1013.5 mb 0.00 in0.0 mm 0.00 in0.0 mm 0.00 in0.0 mm
02:00 AM 58.5°F14.7°C 55.8°F13.2°C 91% Calm Calm -- 29.93 in1013.5 mb 0.00 in0.0 mm 0.00 in0.0 mm 0.00 in0.0 mm
02:05 AM 58.5°F14.7°C 55.8°F13.2°C 91% Calm Calm 1.1 mph1.8 kmh 29.93 in1013.5 mb 0.00 in0.0 mm 0.00 in0.0 mm 0.00 in0.0 mm
02:10 AM 58.5°F14.7°C 55.8°F13.2°C 91% Calm Calm 1.1 mph1.8 kmh 29.92 in1013.2 mb 0.00 in0.0 mm 0.00 in0.0 mm 0.00 in0.0 mm
02:15 AM 58.5°F14.7°C 55.8°F13.2°C 91% 1.1 mph SW1.8 kmh SW 2.0 mph3.2 kmh 29.93 in1013.5 mb 0.00 in0.0 mm 0.00 in0.0 mm 0.00 in0.0 mm
02:20 AM 58.5°F14.7°C 55.8°F13.2°C 91% Calm Calm 2.0 mph3.2 kmh 29.92 in1013.2 mb 0.00 in0.0 mm 0.00 in0.0 mm 0.00 in0.0 mm
02:25 AM 58.3°F14.6°C 55.6°F13.1°C 91% Calm Calm -- 29.92 in1013.2 mb 0.00 in0.0 mm 0.00 in0.0 mm 0.00 in0.0 mm
02:30 AM 58.3°F14.6°C 55.6°F13.1°C 91% Calm Calm 2.0 mph3.2 kmh 29.92 in1013.2 mb 0.00 in0.0 mm 0.00 in0.0 mm 0.00 in0.0 mm
02:35 AM 58.3°F14.6°C 55.6°F13.1°C 91% Calm Calm -- 29.92 in1013.2 mb 0.00 in0.0 mm 0.00 in0.0 mm 0.00 in0.0 mm
02:40 AM 58.3°F14.6°C 55.6°F13.1°C 91% 0.2 mph SW0.3 kmh SW 1.1 mph1.8 kmh 29.92 in1013.2 mb 0.00 in0.0 mm 0.00 in0.0 mm 0.00 in0.0 mm
02:45 AM 58.3°F14.6°C 55.6°F13.1°C 91% Calm Calm -- 29.92 in1013.2 mb 0.00 in0.0 mm 0.00 in0.0 mm 0.00 in0.0 mm
02:50 AM 58.3°F14.6°C 55.6°F13.1°C 91% Calm Calm -- 29.91 in1012.9 mb 0.00 in0.0 mm 0.00 in0.0 mm 0.00 in0.0 mm
02:55 AM 58.5°F14.7°C 55.8°F13.2°C 91% Calm Calm -- 29.91 in1012.9 mb 0.00 in0.0 mm 0.00 in0.0 mm 0.00 in0.0 mm
03:00 AM 58.5°F14.7°C 55.8°F13.2°C 91% Calm Calm -- 29.91 in1012.9 mb 0.00 in0.0 mm 0.00 in0.0 mm 0.00 in0.0 mm
03:05 AM 58.5°F14.7°C 55.8°F13.2°C 91% Calm Calm -- 29.91 in1012.9 mb 0.00 in0.0 mm 0.00 in0.0 mm 0.00 in0.0 mm
03:10 AM 58.5°F14.7°C 55.8°F13.2°C 91% Calm Calm -- 29.91 in1012.9 mb 0.00 in0.0 mm 0.00 in0.0 mm 0.00 in0.0 mm
03:15 AM 58.5°F14.7°C 55.8°F13.2°C 91% 0.2 mph E0.3 kmh E 2.0 mph3.2 kmh 29.91 in1012.9 mb 0.00 in0.0 mm 0.00 in0.0 mm 0.00 in0.0 mm
03:20 AM 58.3°F14.6°C 55.4°F13.0°C 90% Calm Calm 1.1 mph1.8 kmh 29.91 in1012.9 mb 0.00 in0.0 mm 0.00 in0.0 mm 0.00 in0.0 mm
03:25 AM 58.3°F14.6°C 55.4°F13.0°C 90% Calm Calm -- 29.91 in1012.9 mb 0.00 in0.0 mm 0.00 in0.0 mm 0.00 in0.0 mm
03:30 AM 58.5°F14.7°C 55.8°F13.2°C 91% Calm Calm -- 29.91 in1012.9 mb 0.00 in0.0 mm 0.00 in0.0 mm 0.00 in0.0 mm
03:35 AM 58.5°F14.7°C 55.6°F13.1°C 90% Calm Calm -- 29.91 in1012.9 mb 0.00 in0.0 mm 0.00 in0.0 mm 0.00 in0.0 mm
03:40 AM 58.5°F14.7°C 55.6°F13.1°C 90% Calm Calm -- 29.91 in1012.9 mb 0.00 in0.0 mm 0.00 in0.0 mm 0.00 in0.0 mm
03:45 AM 58.5°F14.7°C 55.6°F13.1°C 90% Calm Calm -- 29.91 in1012.9 mb 0.00 in0.0 mm 0.00 in0.0 mm 0.00 in0.0 mm
03:50 AM 58.5°F14.7°C 55.6°F13.1°C 90% Calm Calm -- 29.91 in1012.9 mb 0.00 in0.0 mm 0.00 in0.0 mm 0.00 in0.0 mm
03:55 AM 58.5°F14.7°C 55.6°F13.1°C 90% Calm Calm -- 29.91 in1012.9 mb 0.00 in0.0 mm 0.00 in0.0 mm 0.00 in0.0 mm
04:00 AM 58.6°F14.8°C 55.8°F13.2°C 90% Calm Calm -- 29.91 in1012.9 mb 0.00 in0.0 mm 0.00 in0.0 mm 0.00 in0.0 mm
04:05 AM 58.6°F14.8°C 55.8°F13.2°C 90% Calm Calm -- 29.91 in1012.9 mb 0.00 in0.0 mm 0.00 in0.0 mm 0.00 in0.0 mm
04:10 AM 58.6°F14.8°C 55.8°F13.2°C 90% Calm Calm 1.1 mph1.8 kmh 29.91 in1012.9 mb 0.00 in0.0 mm 0.00 in0.0 mm 0.00 in0.0 mm
04:15 AM 58.5°F14.7°C 55.6°F13.1°C 90% 0.7 mph W1.1 kmh W 2.0 mph3.2 kmh 29.91 in1012.9 mb 0.00 in0.0 mm 0.00 in0.0 mm 0.00 in0.0 mm
04:20 AM 58.5°F14.7°C 55.6°F13.1°C 90% Calm Calm 2.0 mph3.2 kmh 29.91 in1012.9 mb 0.00 in0.0 mm 0.00 in0.0 mm 0.00 in0.0 mm
04:25 AM 58.5°F14.7°C 55.6°F13.1°C 90% 0.2 mph WNW0.3 kmh WNW 1.1 mph1.8 kmh 29.91 in1012.9 mb 0.00 in0.0 mm 0.00 in0.0 mm 0.00 in0.0 mm
04:30 AM 58.5°F14.7°C 55.6°F13.1°C 90% 0.2 mph NW0.3 kmh NW 1.1 mph1.8 kmh 29.91 in1012.9 mb 0.00 in0.0 mm 0.00 in0.0 mm 0.00 in0.0 mm
04:35 AM 58.5°F14.7°C 55.6°F13.1°C 90% Calm Calm 1.1 mph1.8 kmh 29.91 in1012.9 mb 0.00 in0.0 mm 0.00 in0.0 mm 0.00 in0.0 mm
04:40 AM 58.5°F14.7°C 55.6°F13.1°C 90% Calm Calm 2.0 mph3.2 kmh 29.91 in1012.9 mb 0.00 in0.0 mm 0.00 in0.0 mm 0.00 in0.0 mm
04:45 AM 58.5°F14.7°C 55.6°F13.1°C 90% Calm Calm -- 29.91 in1012.9 mb 0.00 in0.0 mm 0.00 in0.0 mm 0.00 in0.0 mm
04:50 AM 58.5°F14.7°C 55.6°F13.1°C 90% Calm Calm -- 29.91 in1012.9 mb 0.00 in0.0 mm 0.00 in0.0 mm 0.00 in0.0 mm
04:55 AM 58.5°F14.7°C 55.6°F13.1°C 90% Calm Calm -- 29.91 in1012.9 mb 0.00 in0.0 mm 0.00 in0.0 mm 0.00 in0.0 mm
05:00 AM 58.5°F14.7°C 55.6°F13.1°C 90% Calm Calm 1.1 mph1.8 kmh 29.91 in1012.9 mb 0.00 in0.0 mm 0.00 in0.0 mm 0.00 in0.0 mm
05:05 AM 58.5°F14.7°C 55.6°F13.1°C 90% Calm Calm -- 29.91 in1012.9 mb 0.00 in0.0 mm 0.00 in0.0 mm 0.00 in0.0 mm
05:10 AM 58.5°F14.7°C 55.6°F13.1°C 90% Calm Calm 1.1 mph1.8 kmh 29.91 in1012.9 mb 0.00 in0.0 mm 0.00 in0.0 mm 0.00 in0.0 mm
05:15 AM 58.3°F14.6°C 55.4°F13.0°C 90% Calm Calm -- 29.91 in1012.9 mb 0.00 in0.0 mm 0.00 in0.0 mm 0.00 in0.0 mm
05:20 AM 58.3°F14.6°C 55.4°F13.0°C 90% Calm Calm -- 29.91 in1012.9 mb 0.00 in0.0 mm 0.00 in0.0 mm 0.00 in0.0 mm
05:25 AM 58.3°F14.6°C 55.4°F13.0°C 90% 0.2 mph W0.3 kmh W 2.0 mph3.2 kmh 29.92 in1013.2 mb 0.00 in0.0 mm 0.00 in0.0 mm 0.00 in0.0 mm
05:30 AM 58.3°F14.6°C 55.4°F13.0°C 90% Calm Calm 2.0 mph3.2 kmh 29.92 in1013.2 mb 0.00 in0.0 mm 0.00 in0.0 mm 0.00 in0.0 mm
05:36 AM 58.5°F14.7°C 55.6°F13.1°C 90% 0.7 mph NW1.1 kmh NW 1.1 mph1.8 kmh 29.92 in1013.2 mb 0.00 in0.0 mm 0.00 in0.0 mm 0.00 in0.0 mm
05:41 AM 58.5°F14.7°C 55.6°F13.1°C 90% 0.9 mph W1.4 kmh W 3.1 mph5.0 kmh 29.92 in1013.2 mb 0.00 in0.0 mm 0.00 in0.0 mm 0.00 in0.0 mm
05:46 AM 58.3°F14.6°C 55.0°F12.8°C 89% 1.1 mph WNW1.8 kmh WNW 4.3 mph6.9 kmh 29.92 in1013.2 mb 0.00 in0.0 mm 0.00 in0.0 mm 0.00 in0.0 mm
05:51 AM 58.3°F14.6°C 55.0°F12.8°C 89% 1.3 mph WNW2.1 kmh WNW 3.1 mph5.0 kmh 29.92 in1013.2 mb 0.00 in0.0 mm 0.00 in0.0 mm 0.00 in0.0 mm
05:56 AM 58.3°F14.6°C 55.0°F12.8°C 89% Calm Calm 3.1 mph5.0 kmh 29.92 in1013.2 mb 0.00 in0.0 mm 0.00 in0.0 mm 0.00 in0.0 mm
06:01 AM 58.3°F14.6°C 55.4°F13.0°C 90% 0.2 mph WNW0.3 kmh WNW 1.1 mph1.8 kmh 29.93 in1013.5 mb 0.00 in0.0 mm 0.00 in0.0 mm 0.00 in0.0 mm
06:06 AM 58.3°F14.6°C 55.0°F12.8°C 89% 0.2 mph NE0.3 kmh NE 3.1 mph5.0 kmh 29.93 in1013.5 mb 0.00 in0.0 mm 0.00 in0.0 mm 0.00 in0.0 mm
06:11 AM 58.3°F14.6°C 55.4°F13.0°C 90% Calm Calm 2.0 mph3.2 kmh 29.93 in1013.5 mb 0.00 in0.0 mm 0.00 in0.0 mm 0.00 in0.0 mm
06:16 AM 58.3°F14.6°C 55.0°F12.8°C 89% 0.4 mph WNW0.6 kmh WNW 2.0 mph3.2 kmh 29.93 in1013.5 mb 0.00 in0.0 mm 0.00 in0.0 mm 0.00 in0.0 mm
06:21 AM 58.5°F14.7°C 55.2°F12.9°C 89% 0.4 mph NW0.6 kmh NW 2.0 mph3.2 kmh 29.93 in1013.5 mb 0.00 in0.0 mm 0.00 in0.0 mm 0.00 in0.0 mm
06:26 AM 58.5°F14.7°C 55.2°F12.9°C 89% Calm Calm 2.0 mph3.2 kmh 29.93 in1013.5 mb 0.00 in0.0 mm 0.00 in0.0 mm 0.00 in0.0 mm
06:31 AM 58.6°F14.8°C 55.4°F13.0°C 89% 1.3 mph S2.1 kmh S 3.1 mph5.0 kmh 29.93 in1013.5 mb 0.00 in0.0 mm 0.00 in0.0 mm 0.00 in0.0 mm
06:36 AM 58.6°F14.8°C 55.4°F13.0°C 89% Calm Calm 3.1 mph5.0 kmh 29.94 in1013.9 mb 0.00 in0.0 mm 0.00 in0.0 mm 0.00 in0.0 mm
06:41 AM 58.8°F14.9°C 55.6°F13.1°C 89% Calm Calm -- 29.94 in1013.9 mb 0.00 in0.0 mm 0.00 in0.0 mm 0.00 in0.0 mm
06:46 AM 59.2°F15.1°C 55.9°F13.3°C 89% 0.4 mph NW0.6 kmh NW 2.0 mph3.2 kmh 29.94 in1013.9 mb 0.00 in0.0 mm 0.00 in0.0 mm 0.00 in0.0 mm
06:51 AM 59.2°F15.1°C 55.6°F13.1°C 88% 0.4 mph NNE0.6 kmh NNE 2.0 mph3.2 kmh 29.94 in1013.9 mb 0.00 in0.0 mm 0.00 in0.0 mm 0.00 in0.0 mm
06:56 AM 59.4°F15.2°C 55.8°F13.2°C 88% 0.2 mph NW0.3 kmh NW 1.1 mph1.8 kmh 29.94 in1013.9 mb 0.00 in0.0 mm 0.00 in0.0 mm 0.00 in0.0 mm
07:01 AM 59.5°F15.3°C 55.9°F13.3°C 88% 0.2 mph SE0.3 kmh SE 2.0 mph3.2 kmh 29.94 in1013.9 mb 0.00 in0.0 mm 0.00 in0.0 mm 0.00 in0.0 mm
07:06 AM 59.7°F15.4°C 56.1°F13.4°C 88% Calm Calm 1.1 mph1.8 kmh 29.94 in1013.9 mb 0.00 in0.0 mm 0.00 in0.0 mm 0.00 in0.0 mm
07:11 AM 59.7°F15.4°C 55.8°F13.2°C 87% 1.6 mph NW2.6 kmh NW 3.1 mph5.0 kmh 29.94 in1013.9 mb 0.00 in0.0 mm 0.00 in0.0 mm 0.00 in0.0 mm
07:16 AM 59.7°F15.4°C 55.8°F13.2°C 87% 1.1 mph WSW1.8 kmh WSW 2.0 mph3.2 kmh 29.94 in1013.9 mb 0.00 in0.0 mm 0.00 in0.0 mm 0.00 in0.0 mm
07:21 AM 59.9°F15.5°C 55.9°F13.3°C 87% 0.7 mph N1.1 kmh N 2.0 mph3.2 kmh 29.95 in1014.2 mb 0.00 in0.0 mm 0.00 in0.0 mm 0.00 in0.0 mm
07:26 AM 60.1°F15.6°C 56.1°F13.4°C 87% 0.4 mph W0.6 kmh W 2.0 mph3.2 kmh 29.95 in1014.2 mb 0.00 in0.0 mm 0.00 in0.0 mm 0.00 in0.0 mm
07:31 AM 60.3°F15.7°C 56.3°F13.5°C 87% Calm Calm -- 29.95 in1014.2 mb 0.00 in0.0 mm 0.00 in0.0 mm 0.00 in0.0 mm
07:36 AM 60.3°F15.7°C 56.1°F13.4°C 86% 1.6 mph NW2.6 kmh NW 4.3 mph6.9 kmh 29.95 in1014.2 mb 0.00 in0.0 mm 0.00 in0.0 mm 0.00 in0.0 mm
07:41 AM 60.3°F15.7°C 56.1°F13.4°C 86% 1.6 mph W2.6 kmh W 3.1 mph5.0 kmh 29.95 in1014.2 mb 0.00 in0.0 mm 0.00 in0.0 mm 0.00 in0.0 mm
07:46 AM 60.3°F15.7°C 56.1°F13.4°C 86% Calm Calm 2.0 mph3.2 kmh 29.95 in1014.2 mb 0.00 in0.0 mm 0.00 in0.0 mm 0.00 in0.0 mm
07:51 AM 60.4°F15.8°C 56.3°F13.5°C 86% Calm Calm 1.1 mph1.8 kmh 29.95 in1014.2 mb 0.00 in0.0 mm 0.00 in0.0 mm 0.00 in0.0 mm
07:56 AM 60.8°F16.0°C 56.3°F13.5°C 85% 1.3 mph WSW2.1 kmh WSW 3.1 mph5.0 kmh 29.95 in1014.2 mb 0.00 in0.0 mm 0.00 in0.0 mm 0.00 in0.0 mm
08:01 AM 61.0°F16.1°C 56.5°F13.6°C 85% Calm Calm 2.0 mph3.2 kmh 29.95 in1014.2 mb 0.00 in0.0 mm 0.00 in0.0 mm 0.00 in0.0 mm
08:06 AM 61.3°F16.3°C 56.5°F13.6°C 84% 0.4 mph SW0.6 kmh SW 1.1 mph1.8 kmh 29.95 in1014.2 mb 0.00 in0.0 mm 0.00 in0.0 mm 0.00 in0.0 mm
08:11 AM 61.3°F16.3°C 56.1°F13.4°C 83% 1.8 mph NW2.9 kmh NW 4.3 mph6.9 kmh 29.94 in1013.9 mb 0.00 in0.0 mm 0.00 in0.0 mm 0.00 in0.0 mm
08:16 AM 61.9°F16.6°C 57.0°F13.9°C 84% 0.2 mph NNW0.3 kmh NNW 2.0 mph3.2 kmh 29.94 in1013.9 mb 0.00 in0.0 mm 0.00 in0.0 mm 0.00 in0.0 mm
08:21 AM 61.9°F16.6°C 56.7°F13.7°C 83% 0.4 mph NNW0.6 kmh NNW 3.1 mph5.0 kmh 29.94 in1013.9 mb 0.00 in0.0 mm 0.00 in0.0 mm 0.00 in0.0 mm
08:26 AM 62.1°F16.7°C 56.5°F13.6°C 82% Calm Calm 3.1 mph5.0 kmh 29.94 in1013.9 mb 0.00 in0.0 mm 0.00 in0.0 mm 0.00 in0.0 mm
08:31 AM 62.2°F16.8°C 56.7°F13.7°C 82% Calm Calm 2.0 mph3.2 kmh 29.94 in1013.9 mb 0.00 in0.0 mm 0.00 in0.0 mm 0.00 in0.0 mm
08:36 AM 62.4°F16.9°C 56.5°F13.6°C 81% 0.7 mph WNW1.1 kmh WNW 4.3 mph6.9 kmh 29.94 in1013.9 mb 0.00 in0.0 mm 0.00 in0.0 mm 0.00 in0.0 mm
08:41 AM 62.6°F17.0°C 56.3°F13.5°C 80% Calm Calm 5.4 mph8.7 kmh 29.94 in1013.9 mb 0.00 in0.0 mm 0.00 in0.0 mm 0.00 in0.0 mm
08:46 AM 63.1°F17.3°C 57.2°F14.0°C 81% Calm Calm 1.1 mph1.8 kmh 29.94 in1013.9 mb 0.00 in0.0 mm 0.00 in0.0 mm 0.00 in0.0 mm
08:51 AM 63.9°F17.7°C 56.8°F13.8°C 78% 1.1 mph NW1.8 kmh NW 3.1 mph5.0 kmh 29.94 in1013.9 mb 0.00 in0.0 mm 0.00 in0.0 mm 0.00 in0.0 mm
08:56 AM 64.2°F17.9°C 57.6°F14.2°C 79% 0.4 mph WNW0.6 kmh WNW 3.1 mph5.0 kmh 29.94 in1013.9 mb 0.00 in0.0 mm 0.00 in0.0 mm 0.00 in0.0 mm
09:01 AM 64.6°F18.1°C 57.6°F14.2°C 78% 0.2 mph ENE0.3 kmh ENE 3.1 mph5.0 kmh 29.94 in1013.9 mb 0.00 in0.0 mm 0.00 in0.0 mm 0.00 in0.0 mm
09:06 AM 65.1°F18.4°C 57.7°F14.3°C 77% Calm Calm 2.0 mph3.2 kmh 29.94 in1013.9 mb 0.00 in0.0 mm 0.00 in0.0 mm 0.00 in0.0 mm
09:11 AM 65.5°F18.6°C 57.4°F14.1°C 75% 0.2 mph W0.3 kmh W 2.0 mph3.2 kmh 29.94 in1013.9 mb 0.00 in0.0 mm 0.00 in0.0 mm 0.00 in0.0 mm
09:16 AM 65.7°F18.7°C 57.2°F14.0°C 74% 0.7 mph NNW1.1 kmh NNW 5.4 mph8.7 kmh 29.94 in1013.9 mb 0.00 in0.0 mm 0.00 in0.0 mm 0.00 in0.0 mm
09:21 AM 66.2°F19.0°C 57.7°F14.3°C 74% 0.2 mph NW0.3 kmh NW 3.1 mph5.0 kmh 29.94 in1013.9 mb 0.00 in0.0 mm 0.00 in0.0 mm 0.00 in0.0 mm
09:26 AM 66.4°F19.1°C 57.4°F14.1°C 73% 2.0 mph WSW3.2 kmh WSW 5.4 mph8.7 kmh 29.94 in1013.9 mb 0.00 in0.0 mm 0.00 in0.0 mm 0.00 in0.0 mm
09:31 AM 66.0°F18.9°C 57.2°F14.0°C 73% 1.6 mph W2.6 kmh W 5.4 mph8.7 kmh 29.93 in1013.5 mb 0.00 in0.0 mm 0.00 in0.0 mm 0.00 in0.0 mm
09:36 AM 66.4°F19.1°C 57.0°F13.9°C 72% 0.2 mph NW0.3 kmh NW 3.1 mph5.0 kmh 29.94 in1013.9 mb 0.00 in0.0 mm 0.00 in0.0 mm 0.00 in0.0 mm
09:41 AM 66.6°F19.2°C 57.2°F14.0°C 72% 0.7 mph W1.1 kmh W 5.4 mph8.7 kmh 29.93 in1013.5 mb 0.00 in0.0 mm 0.00 in0.0 mm 0.00 in0.0 mm
09:46 AM 66.9°F19.4°C 57.6°F14.2°C 72% 0.9 mph WNW1.4 kmh WNW 7.4 mph11.9 kmh 29.94 in1013.9 mb 0.00 in0.0 mm 0.00 in0.0 mm 0.00 in0.0 mm
09:51 AM 67.5°F19.7°C 57.7°F14.3°C 71% 0.4 mph WNW0.6 kmh WNW 4.3 mph6.9 kmh 29.93 in1013.5 mb 0.00 in0.0 mm 0.00 in0.0 mm 0.00 in0.0 mm
09:56 AM 67.8°F19.9°C 58.1°F14.5°C 71% 1.3 mph S2.1 kmh S 6.3 mph10.1 kmh 29.93 in1013.5 mb 0.00 in0.0 mm 0.00 in0.0 mm 0.00 in0.0 mm
10:01 AM 68.5°F20.3°C 57.9°F14.4°C 69% 2.7 mph WSW4.3 kmh WSW 7.4 mph11.9 kmh 29.93 in1013.5 mb 0.00 in0.0 mm 0.00 in0.0 mm 0.00 in0.0 mm
10:06 AM 68.7°F20.4°C 57.4°F14.1°C 67% 2.5 mph WSW4.0 kmh WSW 5.4 mph8.7 kmh 29.93 in1013.5 mb 0.00 in0.0 mm 0.00 in0.0 mm 0.00 in0.0 mm
10:11 AM 68.9°F20.5°C 57.9°F14.4°C 68% 4.7 mph WSW7.6 kmh WSW 7.4 mph11.9 kmh 29.93 in1013.5 mb 0.00 in0.0 mm 0.00 in0.0 mm 0.00 in0.0 mm
10:16 AM 69.4°F20.8°C 57.9°F14.4°C 67% 5.4 mph SW8.7 kmh SW 9.6 mph15.4 kmh 29.93 in1013.5 mb 0.00 in0.0 mm 0.00 in0.0 mm 0.00 in0.0 mm
10:21 AM 70.0°F21.1°C 58.5°F14.7°C 67% 4.3 mph WSW6.9 kmh WSW 10.5 mph16.9 kmh 29.93 in1013.5 mb 0.00 in0.0 mm 0.00 in0.0 mm 0.00 in0.0 mm
10:26 AM 70.0°F21.1°C 58.5°F14.7°C 67% 6.5 mph SW10.5 kmh SW 11.6 mph18.7 kmh 29.93 in1013.5 mb 0.00 in0.0 mm 0.00 in0.0 mm 0.00 in0.0 mm
10:31 AM 69.4°F20.8°C 57.9°F14.4°C 67% 4.7 mph SW7.6 kmh SW 11.6 mph18.7 kmh 29.93 in1013.5 mb 0.00 in0.0 mm 0.00 in0.0 mm 0.00 in0.0 mm
10:36 AM 69.6°F20.9°C 58.1°F14.5°C 67% 6.3 mph SW10.1 kmh SW 10.5 mph16.9 kmh 29.93 in1013.5 mb 0.00 in0.0 mm 0.00 in0.0 mm 0.00 in0.0 mm
10:41 AM 69.3°F20.7°C 58.3°F14.6°C 68% 7.4 mph S11.9 kmh S 10.5 mph16.9 kmh 29.93 in1013.5 mb 0.00 in0.0 mm 0.00 in0.0 mm 0.00 in0.0 mm
10:46 AM 69.1°F20.6°C 58.5°F14.7°C 69% 6.7 mph SW10.8 kmh SW 11.6 mph18.7 kmh 29.93 in1013.5 mb 0.00 in0.0 mm 0.00 in0.0 mm 0.00 in0.0 mm
10:51 AM 69.3°F20.7°C 58.3°F14.6°C 68% 6.0 mph S9.7 kmh S 11.6 mph18.7 kmh 29.93 in1013.5 mb 0.00 in0.0 mm 0.00 in0.0 mm 0.00 in0.0 mm
10:56 AM 69.8°F21.0°C 58.8°F14.9°C 68% 6.0 mph WSW9.7 kmh WSW 11.6 mph18.7 kmh 29.93 in1013.5 mb 0.00 in0.0 mm 0.00 in0.0 mm 0.00 in0.0 mm
11:01 AM 69.6°F20.9°C 58.6°F14.8°C 68% 6.5 mph SSW10.5 kmh SSW 13.9 mph22.4 kmh 29.93 in1013.5 mb 0.00 in0.0 mm 0.00 in0.0 mm 0.00 in0.0 mm
11:06 AM 70.2°F21.2°C 58.6°F14.8°C 67% 5.4 mph SW8.7 kmh SW 11.6 mph18.7 kmh 29.92 in1013.2 mb 0.00 in0.0 mm 0.00 in0.0 mm 0.00 in0.0 mm
11:11 AM 69.8°F21.0°C 58.3°F14.6°C 67% 7.4 mph SW11.9 kmh SW 13.9 mph22.4 kmh 29.92 in1013.2 mb 0.00 in0.0 mm 0.00 in0.0 mm 0.00 in0.0 mm
11:16 AM 69.8°F21.0°C 58.3°F14.6°C 67% 6.0 mph W9.7 kmh W 11.6 mph18.7 kmh 29.93 in1013.5 mb 0.00 in0.0 mm 0.00 in0.0 mm 0.00 in0.0 mm
11:21 AM 69.6°F20.9°C 58.1°F14.5°C 67% 5.4 mph SW8.7 kmh SW 9.6 mph15.4 kmh 29.93 in1013.5 mb 0.00 in0.0 mm 0.00 in0.0 mm 0.00 in0.0 mm
11:26 AM 69.6°F20.9°C 57.7°F14.3°C 66% 6.0 mph WSW9.7 kmh WSW 12.8 mph20.6 kmh 29.93 in1013.5 mb 0.00 in0.0 mm 0.00 in0.0 mm 0.00 in0.0 mm
11:31 AM 70.0°F21.1°C 58.1°F14.5°C 66% 5.1 mph SSW8.2 kmh SSW 11.6 mph18.7 kmh 29.93 in1013.5 mb 0.00 in0.0 mm 0.00 in0.0 mm 0.00 in0.0 mm
11:36 AM 69.6°F20.9°C 57.7°F14.3°C 66% 5.1 mph 8.2 kmh 10.5 mph16.9 kmh 29.93 in1013.5 mb 0.00 in0.0 mm 0.00 in0.0 mm 0.00 in0.0 mm
11:41 AM 69.4°F20.8°C 57.6°F14.2°C 66% 5.8 mph WSW9.3 kmh WSW 9.6 mph15.4 kmh 29.93 in1013.5 mb 0.00 in0.0 mm 0.00 in0.0 mm 0.00 in0.0 mm
11:46 AM 69.1°F20.6°C 57.7°F14.3°C 67% 8.3 mph SW13.4 kmh SW 13.9 mph22.4 kmh 29.93 in1013.5 mb 0.00 in0.0 mm 0.00 in0.0 mm 0.00 in0.0 mm
11:51 AM 68.5°F20.3°C 57.2°F14.0°C 67% 6.5 mph SW10.5 kmh SW 14.8 mph23.8 kmh 29.93 in1013.5 mb 0.00 in0.0 mm 0.00 in0.0 mm 0.00 in0.0 mm
11:56 AM 68.5°F20.3°C 57.2°F14.0°C 67% 4.5 mph ESE7.2 kmh ESE 13.9 mph22.4 kmh 29.93 in1013.5 mb 0.00 in0.0 mm 0.00 in0.0 mm 0.00 in0.0 mm
12:01 PM 68.9°F20.5°C 57.6°F14.2°C 67% 5.4 mph SW8.7 kmh SW 10.5 mph16.9 kmh 29.93 in1013.5 mb 0.00 in0.0 mm 0.00 in0.0 mm 0.00 in0.0 mm
12:06 PM 68.7°F20.4°C 56.8°F13.8°C 66% 5.1 mph WSW8.2 kmh WSW 10.5 mph16.9 kmh 29.93 in1013.5 mb 0.00 in0.0 mm 0.00 in0.0 mm 0.00 in0.0 mm
12:11 PM 68.5°F20.3°C 56.7°F13.7°C 66% 4.0 mph WSW6.4 kmh WSW 11.6 mph18.7 kmh 29.94 in1013.9 mb 0.00 in0.0 mm 0.00 in0.0 mm 0.00 in0.0 mm
12:16 PM 68.2°F20.1°C 56.8°F13.8°C 67% 6.7 mph SSW10.8 kmh SSW 13.9 mph22.4 kmh 29.93 in1013.5 mb 0.00 in0.0 mm 0.00 in0.0 mm 0.00 in0.0 mm
12:21 PM 68.4°F20.2°C 56.5°F13.6°C 66% 6.3 mph S10.1 kmh S 11.6 mph18.7 kmh 29.93 in1013.5 mb 0.00 in0.0 mm 0.00 in0.0 mm 0.00 in0.0 mm
12:26 PM 68.4°F20.2°C 57.0°F13.9°C 67% 4.0 mph SW6.4 kmh SW 10.5 mph16.9 kmh 29.93 in1013.5 mb 0.00 in0.0 mm 0.00 in0.0 mm 0.00 in0.0 mm
12:31 PM 68.7°F20.4°C 56.8°F13.8°C 66% 5.4 mph WSW8.7 kmh WSW 9.6 mph15.4 kmh 29.93 in1013.5 mb 0.00 in0.0 mm 0.00 in0.0 mm 0.00 in0.0 mm
12:36 PM 69.1°F20.6°C 55.9°F13.3°C 63% 6.0 mph W9.7 kmh W 10.5 mph16.9 kmh 29.93 in1013.5 mb 0.00 in0.0 mm 0.00 in0.0 mm 0.00 in0.0 mm
12:41 PM 68.2°F20.1°C 56.3°F13.5°C 66% 1.6 mph S2.6 kmh S 9.6 mph15.4 kmh 29.93 in1013.5 mb 0.00 in0.0 mm 0.00 in0.0 mm 0.00 in0.0 mm
12:46 PM 68.2°F20.1°C 56.3°F13.5°C 66% 3.6 mph W5.8 kmh W 9.6 mph15.4 kmh 29.93 in1013.5 mb 0.00 in0.0 mm 0.00 in0.0 mm 0.00 in0.0 mm
12:51 PM 69.3°F20.7°C 57.0°F13.9°C 65% 1.8 mph SW2.9 kmh SW 9.6 mph15.4 kmh 29.93 in1013.5 mb 0.00 in0.0 mm 0.00 in0.0 mm 0.00 in0.0 mm
12:56 PM 69.4°F20.8°C 57.2°F14.0°C 65% 2.9 mph SSW4.7 kmh SSW 9.6 mph15.4 kmh 29.93 in1013.5 mb 0.00 in0.0 mm 0.00 in0.0 mm 0.00 in0.0 mm
01:01 PM 69.6°F20.9°C 56.8°F13.8°C 64% 4.9 mph SW7.9 kmh SW 9.6 mph15.4 kmh 29.93 in1013.5 mb 0.00 in0.0 mm 0.00 in0.0 mm 0.00 in0.0 mm
01:06 PM 69.6°F20.9°C 56.8°F13.8°C 64% 3.1 mph SW5.0 kmh SW 10.5 mph16.9 kmh 29.93 in1013.5 mb 0.00 in0.0 mm 0.00 in0.0 mm 0.00 in0.0 mm
01:11 PM 71.1°F21.7°C 57.4°F14.1°C 62% 3.1 mph WSW5.0 kmh WSW 7.4 mph11.9 kmh 29.93 in1013.5 mb 0.00 in0.0 mm 0.00 in0.0 mm 0.00 in0.0 mm
01:16 PM 70.9°F21.6°C 56.8°F13.8°C 61% 5.6 mph WSW9.0 kmh WSW 10.5 mph16.9 kmh 29.93 in1013.5 mb 0.00 in0.0 mm 0.00 in0.0 mm 0.00 in0.0 mm
01:21 PM 70.0°F21.1°C 56.3°F13.5°C 62% 5.4 mph SW8.7 kmh SW 11.6 mph18.7 kmh 29.93 in1013.5 mb 0.00 in0.0 mm 0.00 in0.0 mm 0.00 in0.0 mm
01:26 PM 69.8°F21.0°C 56.7°F13.7°C 63% 6.3 mph NW10.1 kmh NW 10.5 mph16.9 kmh 29.92 in1013.2 mb 0.00 in0.0 mm 0.00 in0.0 mm 0.00 in0.0 mm
01:31 PM 69.6°F20.9°C 56.5°F13.6°C 63% 4.9 mph WNW7.9 kmh WNW 9.6 mph15.4 kmh 29.92 in1013.2 mb 0.00 in0.0 mm 0.00 in0.0 mm 0.00 in0.0 mm
01:36 PM 69.8°F21.0°C 56.1°F13.4°C 62% 2.9 mph NW4.7 kmh NW 9.6 mph15.4 kmh 29.91 in1012.9 mb 0.00 in0.0 mm 0.00 in0.0 mm 0.00 in0.0 mm
01:41 PM 70.3°F21.3°C 56.3°F13.5°C 61% 4.9 mph W7.9 kmh W 8.5 mph13.7 kmh 29.92 in1013.2 mb 0.00 in0.0 mm 0.00 in0.0 mm 0.00 in0.0 mm
01:46 PM 70.0°F21.1°C 55.9°F13.3°C 61% 5.1 mph WSW8.2 kmh WSW 9.6 mph15.4 kmh 29.92 in1013.2 mb 0.00 in0.0 mm 0.00 in0.0 mm 0.00 in0.0 mm
01:51 PM 69.6°F20.9°C 55.9°F13.3°C 62% 4.0 mph N6.4 kmh N 8.5 mph13.7 kmh 29.92 in1013.2 mb 0.00 in0.0 mm 0.00 in0.0 mm 0.00 in0.0 mm
01:56 PM 70.3°F21.3°C 56.3°F13.5°C 61% 3.8 mph NW6.1 kmh NW 8.5 mph13.7 kmh 29.92 in1013.2 mb 0.00 in0.0 mm 0.00 in0.0 mm 0.00 in0.0 mm
02:01 PM 70.9°F21.6°C 58.1°F14.5°C 64% 3.1 mph SW5.0 kmh SW 4.3 mph6.9 kmh 29.91 in1012.9 mb 0.00 in0.0 mm 0.00 in0.0 mm 0.00 in0.0 mm
02:06 PM 71.1°F21.7°C 56.5°F13.6°C 60% 2.7 mph SSW4.3 kmh SSW 7.4 mph11.9 kmh 29.91 in1012.9 mb 0.00 in0.0 mm 0.00 in0.0 mm 0.00 in0.0 mm
02:11 PM 70.5°F21.4°C 55.9°F13.3°C 60% 4.7 mph W7.6 kmh W 9.6 mph15.4 kmh 29.91 in1012.9 mb 0.00 in0.0 mm 0.00 in0.0 mm 0.00 in0.0 mm
02:16 PM 70.9°F21.6°C 56.3°F13.5°C 60% 5.1 mph SSW8.2 kmh SSW 10.5 mph16.9 kmh 29.91 in1012.9 mb 0.00 in0.0 mm 0.00 in0.0 mm 0.00 in0.0 mm
02:21 PM 70.9°F21.6°C 56.8°F13.8°C 61% 3.4 mph SW5.5 kmh SW 9.6 mph15.4 kmh 29.91 in1012.9 mb 0.00 in0.0 mm 0.00 in0.0 mm 0.00 in0.0 mm
02:26 PM 70.5°F21.4°C 55.9°F13.3°C 60% 3.8 mph SW6.1 kmh SW 11.6 mph18.7 kmh 29.91 in1012.9 mb 0.00 in0.0 mm 0.00 in0.0 mm 0.00 in0.0 mm
02:31 PM 69.8°F21.0°C 56.1°F13.4°C 62% 1.8 mph WSW2.9 kmh WSW 10.5 mph16.9 kmh 29.91 in1012.9 mb 0.00 in0.0 mm 0.00 in0.0 mm 0.00 in0.0 mm
02:36 PM 70.5°F21.4°C 56.8°F13.8°C 62% 4.7 mph W7.6 kmh W 11.6 mph18.7 kmh 29.91 in1012.9 mb 0.00 in0.0 mm 0.00 in0.0 mm 0.00 in0.0 mm
02:41 PM 69.8°F21.0°C 55.8°F13.2°C 61% 3.8 mph WSW6.1 kmh WSW 11.6 mph18.7 kmh 29.91 in1012.9 mb 0.00 in0.0 mm 0.00 in0.0 mm 0.00 in0.0 mm
02:46 PM 69.3°F20.7°C 56.1°F13.4°C 63% 5.6 mph SW9.0 kmh SW 10.5 mph16.9 kmh 29.91 in1012.9 mb 0.00 in0.0 mm 0.00 in0.0 mm 0.00 in0.0 mm
02:51 PM 69.1°F20.6°C 56.5°F13.6°C 64% 4.7 mph NW7.6 kmh NW 10.5 mph16.9 kmh 29.91 in1012.9 mb 0.00 in0.0 mm 0.00 in0.0 mm 0.00 in0.0 mm
02:56 PM 69.1°F20.6°C 56.5°F13.6°C 64% 4.0 mph W6.4 kmh W 7.4 mph11.9 kmh 29.91 in1012.9 mb 0.00 in0.0 mm 0.00 in0.0 mm 0.00 in0.0 mm
03:01 PM 68.9°F20.5°C 55.8°F13.2°C 63% 4.7 mph WSW7.6 kmh WSW 8.5 mph13.7 kmh 29.91 in1012.9 mb 0.00 in0.0 mm 0.00 in0.0 mm 0.00 in0.0 mm
03:06 PM 68.7°F20.4°C 56.1°F13.4°C 64% 3.6 mph W5.8 kmh W 8.5 mph13.7 kmh 29.90 in1012.5 mb 0.00 in0.0 mm 0.00 in0.0 mm 0.00 in0.0 mm
03:11 PM 69.1°F20.6°C 56.5°F13.6°C 64% 4.7 mph WSW7.6 kmh WSW 10.5 mph16.9 kmh 29.90 in1012.5 mb 0.00 in0.0 mm 0.00 in0.0 mm 0.00 in0.0 mm
03:16 PM 68.5°F20.3°C 56.3°F13.5°C 65% 3.1 mph SW5.0 kmh SW 8.5 mph13.7 kmh 29.91 in1012.9 mb 0.00 in0.0 mm 0.00 in0.0 mm 0.00 in0.0 mm
03:21 PM 68.7°F20.4°C 56.1°F13.4°C 64% 3.4 mph WNW5.5 kmh WNW 8.5 mph13.7 kmh 29.91 in1012.9 mb 0.00 in0.0 mm 0.00 in0.0 mm 0.00 in0.0 mm
03:26 PM 68.5°F20.3°C 56.7°F13.7°C 66% 3.8 mph WSW6.1 kmh WSW 6.3 mph10.1 kmh 29.91 in1012.9 mb 0.00 in0.0 mm 0.00 in0.0 mm 0.00 in0.0 mm
03:31 PM 68.9°F20.5°C 55.8°F13.2°C 63% 5.6 mph WSW9.0 kmh WSW 9.6 mph15.4 kmh 29.91 in1012.9 mb 0.00 in0.0 mm 0.00 in0.0 mm 0.00 in0.0 mm
03:36 PM 67.8°F19.9°C 55.6°F13.1°C 65% 5.4 mph WNW8.7 kmh WNW 9.6 mph15.4 kmh 29.91 in1012.9 mb 0.00 in0.0 mm 0.00 in0.0 mm 0.00 in0.0 mm
03:41 PM 67.6°F19.8°C 55.9°F13.3°C 66% 4.0 mph SW6.4 kmh SW 8.5 mph13.7 kmh 29.91 in1012.9 mb 0.00 in0.0 mm 0.00 in0.0 mm 0.00 in0.0 mm
03:46 PM 68.2°F20.1°C 56.3°F13.5°C 66% 4.0 mph WNW6.4 kmh WNW 9.6 mph15.4 kmh 29.91 in1012.9 mb 0.00 in0.0 mm 0.00 in0.0 mm 0.00 in0.0 mm
03:51 PM 68.4°F20.2°C 56.5°F13.6°C 66% 5.6 mph SW9.0 kmh SW 9.6 mph15.4 kmh 29.91 in1012.9 mb 0.00 in0.0 mm 0.00 in0.0 mm 0.00 in0.0 mm
03:56 PM 67.8°F19.9°C 55.6°F13.1°C 65% 4.7 mph WSW7.6 kmh WSW 9.6 mph15.4 kmh 29.91 in1012.9 mb 0.00 in0.0 mm 0.00 in0.0 mm 0.00 in0.0 mm
04:01 PM 67.5°F19.7°C 56.1°F13.4°C 67% 3.6 mph WSW5.8 kmh WSW 8.5 mph13.7 kmh 29.91 in1012.9 mb 0.00 in0.0 mm 0.00 in0.0 mm 0.00 in0.0 mm
04:06 PM 67.6°F19.8°C 55.9°F13.3°C 66% 4.7 mph W7.6 kmh W 8.5 mph13.7 kmh 29.91 in1012.9 mb 0.00 in0.0 mm 0.00 in0.0 mm 0.00 in0.0 mm
04:11 PM 66.9°F19.4°C 55.6°F13.1°C 67% 4.9 mph WSW7.9 kmh WSW 8.5 mph13.7 kmh 29.91 in1012.9 mb 0.00 in0.0 mm 0.00 in0.0 mm 0.00 in0.0 mm
04:16 PM 66.9°F19.4°C 55.9°F13.3°C 68% 4.9 mph WSW7.9 kmh WSW 8.5 mph13.7 kmh 29.91 in1012.9 mb 0.00 in0.0 mm 0.00 in0.0 mm 0.00 in0.0 mm
04:21 PM 66.6°F19.2°C 55.6°F13.1°C 68% 3.6 mph W5.8 kmh W 7.4 mph11.9 kmh 29.91 in1012.9 mb 0.00 in0.0 mm 0.00 in0.0 mm 0.00 in0.0 mm
04:26 PM 66.7°F19.3°C 56.3°F13.5°C 69% 2.9 mph WSW4.7 kmh WSW 9.6 mph15.4 kmh 29.91 in1012.9 mb 0.00 in0.0 mm 0.00 in0.0 mm 0.00 in0.0 mm
04:31 PM 66.2°F19.0°C 55.4°F13.0°C 68% 4.0 mph SW6.4 kmh SW 7.4 mph11.9 kmh 29.91 in1012.9 mb 0.00 in0.0 mm 0.00 in0.0 mm 0.00 in0.0 mm
04:36 PM 66.2°F19.0°C 55.8°F13.2°C 69% 3.6 mph W5.8 kmh W 6.3 mph10.1 kmh 29.91 in1012.9 mb 0.00 in0.0 mm 0.00 in0.0 mm 0.00 in0.0 mm
04:41 PM 66.2°F19.0°C 55.8°F13.2°C 69% 4.5 mph W7.2 kmh W 7.4 mph11.9 kmh 29.91 in1012.9 mb 0.00 in0.0 mm 0.00 in0.0 mm 0.00 in0.0 mm
04:46 PM 66.2°F19.0°C 55.8°F13.2°C 69% 4.0 mph W6.4 kmh W 7.4 mph11.9 kmh 29.91 in1012.9 mb 0.00 in0.0 mm 0.00 in0.0 mm 0.00 in0.0 mm
04:51 PM 65.8°F18.8°C 55.8°F13.2°C 70% 3.8 mph WSW6.1 kmh WSW 7.4 mph11.9 kmh 29.91 in1012.9 mb 0.00 in0.0 mm 0.00 in0.0 mm 0.00 in0.0 mm
04:56 PM 66.0°F18.9°C 55.9°F13.3°C 70% 2.9 mph NW4.7 kmh NW 6.3 mph10.1 kmh 29.91 in1012.9 mb 0.00 in0.0 mm 0.00 in0.0 mm 0.00 in0.0 mm
05:01 PM 66.2°F19.0°C 55.8°F13.2°C 69% 4.9 mph WSW7.9 kmh WSW 8.5 mph13.7 kmh 29.91 in1012.9 mb 0.00 in0.0 mm 0.00 in0.0 mm 0.00 in0.0 mm
05:06 PM 65.5°F18.6°C 55.4°F13.0°C 70% 3.8 mph WSW6.1 kmh WSW 7.4 mph11.9 kmh 29.91 in1012.9 mb 0.00 in0.0 mm 0.00 in0.0 mm 0.00 in0.0 mm
05:11 PM 65.7°F18.7°C 55.6°F13.1°C 70% 2.5 mph WSW4.0 kmh WSW 5.4 mph8.7 kmh 29.91 in1012.9 mb 0.00 in0.0 mm 0.00 in0.0 mm 0.00 in0.0 mm
05:16 PM 65.1°F18.4°C 55.0°F12.8°C 70% 3.4 mph SW5.5 kmh SW 9.6 mph15.4 kmh 29.91 in1012.9 mb 0.00 in0.0 mm 0.00 in0.0 mm 0.00 in0.0 mm
05:21 PM 64.8°F18.2°C 55.2°F12.9°C 71% 2.5 mph WSW4.0 kmh WSW 6.3 mph10.1 kmh 29.91 in1012.9 mb 0.00 in0.0 mm 0.00 in0.0 mm 0.00 in0.0 mm
05:26 PM 64.8°F18.2°C 55.6°F13.1°C 72% 1.3 mph SW2.1 kmh SW 6.3 mph10.1 kmh 29.92 in1013.2 mb 0.00 in0.0 mm 0.00 in0.0 mm 0.00 in0.0 mm
05:31 PM 64.9°F18.3°C 55.4°F13.0°C 71% 2.5 mph NW4.0 kmh NW 4.3 mph6.9 kmh 29.92 in1013.2 mb 0.00 in0.0 mm 0.00 in0.0 mm 0.00 in0.0 mm
05:36 PM 64.9°F18.3°C 55.4°F13.0°C 71% 3.4 mph WNW5.5 kmh WNW 5.4 mph8.7 kmh 29.92 in1013.2 mb 0.00 in0.0 mm 0.00 in0.0 mm 0.00 in0.0 mm
05:41 PM 64.2°F17.9°C 55.0°F12.8°C 72% 4.0 mph W6.4 kmh W 6.3 mph10.1 kmh 29.92 in1013.2 mb 0.00 in0.0 mm 0.00 in0.0 mm 0.00 in0.0 mm
05:46 PM 64.0°F17.8°C 55.2°F12.9°C 73% 1.6 mph WSW2.6 kmh WSW 6.3 mph10.1 kmh 29.92 in1013.2 mb 0.00 in0.0 mm 0.00 in0.0 mm 0.00 in0.0 mm
05:51 PM 64.0°F17.8°C 54.9°F12.7°C 72% 2.5 mph NW4.0 kmh NW 4.3 mph6.9 kmh 29.92 in1013.2 mb 0.00 in0.0 mm 0.00 in0.0 mm 0.00 in0.0 mm
05:56 PM 63.3°F17.4°C 54.9°F12.7°C 74% 2.9 mph W4.7 kmh W 7.4 mph11.9 kmh 29.92 in1013.2 mb 0.00 in0.0 mm 0.00 in0.0 mm 0.00 in0.0 mm
06:01 PM 63.0°F17.2°C 54.9°F12.7°C 75% 2.0 mph W3.2 kmh W 5.4 mph8.7 kmh 29.92 in1013.2 mb 0.00 in0.0 mm 0.00 in0.0 mm 0.00 in0.0 mm
06:06 PM 62.4°F16.9°C 54.3°F12.4°C 75% 3.1 mph W5.0 kmh W 6.3 mph10.1 kmh 29.92 in1013.2 mb 0.00 in0.0 mm 0.00 in0.0 mm 0.00 in0.0 mm
06:11 PM 61.9°F16.6°C 54.7°F12.6°C 77% 2.7 mph WNW4.3 kmh WNW 6.3 mph10.1 kmh 29.92 in1013.2 mb 0.00 in0.0 mm 0.00 in0.0 mm 0.00 in0.0 mm
06:16 PM 61.3°F16.3°C 54.1°F12.3°C 77% 3.6 mph W5.8 kmh W 6.3 mph10.1 kmh 29.92 in1013.2 mb 0.00 in0.0 mm 0.00 in0.0 mm 0.00 in0.0 mm
06:21 PM 61.0°F16.1°C 54.1°F12.3°C 78% 2.5 mph NW4.0 kmh NW 5.4 mph8.7 kmh 29.93 in1013.5 mb 0.00 in0.0 mm 0.00 in0.0 mm 0.00 in0.0 mm
06:26 PM 61.0°F16.1°C 54.5°F12.5°C 79% 1.3 mph 2.1 kmh 6.3 mph10.1 kmh 29.93 in1013.5 mb 0.00 in0.0 mm 0.00 in0.0 mm 0.00 in0.0 mm
06:31 PM 60.6°F15.9°C 54.1°F12.3°C 79% 1.8 mph W2.9 kmh W 6.3 mph10.1 kmh 29.93 in1013.5 mb 0.00 in0.0 mm 0.00 in0.0 mm 0.00 in0.0 mm
06:36 PM 60.3°F15.7°C 53.8°F12.1°C 79% 2.2 mph W3.5 kmh W 4.3 mph6.9 kmh 29.93 in1013.5 mb 0.00 in0.0 mm 0.00 in0.0 mm 0.00 in0.0 mm
06:41 PM 60.1°F15.6°C 54.0°F12.2°C 80% 1.6 mph NNW2.6 kmh NNW 4.3 mph6.9 kmh 29.93 in1013.5 mb 0.00 in0.0 mm 0.00 in0.0 mm 0.00 in0.0 mm
06:46 PM 59.9°F15.5°C 54.1°F12.3°C 81% 1.1 mph WNW1.8 kmh WNW 4.3 mph6.9 kmh 29.93 in1013.5 mb 0.00 in0.0 mm 0.00 in0.0 mm 0.00 in0.0 mm
06:51 PM 59.7°F15.4°C 54.0°F12.2°C 81% 2.0 mph NW3.2 kmh NW 4.3 mph6.9 kmh 29.93 in1013.5 mb 0.00 in0.0 mm 0.00 in0.0 mm 0.00 in0.0 mm
06:56 PM 59.4°F15.2°C 53.8°F12.1°C 82% 2.2 mph W3.5 kmh W 4.3 mph6.9 kmh 29.93 in1013.5 mb 0.00 in0.0 mm 0.00 in0.0 mm 0.00 in0.0 mm
07:01 PM 59.2°F15.1°C 53.6°F12.0°C 82% 0.9 mph W1.4 kmh W 2.0 mph3.2 kmh 29.93 in1013.5 mb 0.00 in0.0 mm 0.00 in0.0 mm 0.00 in0.0 mm
07:06 PM 59.2°F15.1°C 53.6°F12.0°C 82% 0.9 mph WNW1.4 kmh WNW 4.3 mph6.9 kmh 29.93 in1013.5 mb 0.00 in0.0 mm 0.00 in0.0 mm 0.00 in0.0 mm
07:11 PM 59.2°F15.1°C 54.0°F12.2°C 83% 0.7 mph NW1.1 kmh NW 2.0 mph3.2 kmh 29.94 in1013.9 mb 0.00 in0.0 mm 0.00 in0.0 mm 0.00 in0.0 mm
07:16 PM 59.0°F15.0°C 53.8°F12.1°C 83% 1.3 mph NW2.1 kmh NW 2.0 mph3.2 kmh 29.94 in1013.9 mb 0.00 in0.0 mm 0.00 in0.0 mm 0.00 in0.0 mm
07:21 PM 59.0°F15.0°C 53.8°F12.1°C 83% 0.2 mph WNW0.3 kmh WNW 2.0 mph3.2 kmh 29.94 in1013.9 mb 0.00 in0.0 mm 0.00 in0.0 mm 0.00 in0.0 mm
07:26 PM 58.8°F14.9°C 53.6°F12.0°C 83% 1.1 mph NW1.8 kmh NW 3.1 mph5.0 kmh 29.94 in1013.9 mb 0.00 in0.0 mm 0.00 in0.0 mm 0.00 in0.0 mm
07:31 PM 58.8°F14.9°C 53.6°F12.0°C 83% 2.2 mph NW3.5 kmh NW 4.3 mph6.9 kmh 29.94 in1013.9 mb 0.00 in0.0 mm 0.00 in0.0 mm 0.00 in0.0 mm
07:36 PM 58.6°F14.8°C 53.4°F11.9°C 83% 0.4 mph WNW0.6 kmh WNW 4.3 mph6.9 kmh 29.95 in1014.2 mb 0.00 in0.0 mm 0.00 in0.0 mm 0.00 in0.0 mm
07:41 PM 58.6°F14.8°C 53.4°F11.9°C 83% 0.7 mph W1.1 kmh W 2.0 mph3.2 kmh 29.95 in1014.2 mb 0.00 in0.0 mm 0.00 in0.0 mm 0.00 in0.0 mm
07:46 PM 58.6°F14.8°C 53.4°F11.9°C 83% 1.1 mph WNW1.8 kmh WNW 4.3 mph6.9 kmh 29.95 in1014.2 mb 0.00 in0.0 mm 0.00 in0.0 mm 0.00 in0.0 mm
07:51 PM 58.6°F14.8°C 53.4°F11.9°C 83% 0.4 mph NW0.6 kmh NW 3.1 mph5.0 kmh 29.95 in1014.2 mb 0.00 in0.0 mm 0.00 in0.0 mm 0.00 in0.0 mm
07:56 PM 58.6°F14.8°C 53.4°F11.9°C 83% 0.7 mph NW1.1 kmh NW 2.0 mph3.2 kmh 29.95 in1014.2 mb 0.00 in0.0 mm 0.00 in0.0 mm 0.00 in0.0 mm
08:01 PM 58.6°F14.8°C 53.4°F11.9°C 83% 0.7 mph NW1.1 kmh NW 3.1 mph5.0 kmh 29.95 in1014.2 mb 0.00 in0.0 mm 0.00 in0.0 mm 0.00 in0.0 mm
08:06 PM 58.6°F14.8°C 53.4°F11.9°C 83% 0.2 mph NW0.3 kmh NW 3.1 mph5.0 kmh 29.95 in1014.2 mb 0.00 in0.0 mm 0.00 in0.0 mm 0.00 in0.0 mm
08:11 PM 58.5°F14.7°C 53.2°F11.8°C 83% 1.8 mph N2.9 kmh N 3.1 mph5.0 kmh 29.95 in1014.2 mb 0.00 in0.0 mm 0.00 in0.0 mm 0.00 in0.0 mm
08:16 PM 58.5°F14.7°C 53.2°F11.8°C 83% 0.9 mph NW1.4 kmh NW 3.1 mph5.0 kmh 29.95 in1014.2 mb 0.00 in0.0 mm 0.00 in0.0 mm 0.00 in0.0 mm
08:21 PM 58.5°F14.7°C 53.6°F12.0°C 84% Calm Calm 2.0 mph3.2 kmh 29.95 in1014.2 mb 0.00 in0.0 mm 0.00 in0.0 mm 0.00 in0.0 mm
08:26 PM 58.3°F14.6°C 53.4°F11.9°C 84% 0.2 mph NW0.3 kmh NW 4.3 mph6.9 kmh 29.95 in1014.2 mb 0.00 in0.0 mm 0.00 in0.0 mm 0.00 in0.0 mm
08:31 PM 58.1°F14.5°C 53.2°F11.8°C 84% Calm Calm 1.1 mph1.8 kmh 29.95 in1014.2 mb 0.00 in0.0 mm 0.00 in0.0 mm 0.00 in0.0 mm
08:36 PM 57.9°F14.4°C 53.1°F11.7°C 84% 0.4 mph NW0.6 kmh NW 2.0 mph3.2 kmh 29.95 in1014.2 mb 0.00 in0.0 mm 0.00 in0.0 mm 0.00 in0.0 mm
08:41 PM 57.7°F14.3°C 52.9°F11.6°C 84% Calm Calm -- 29.95 in1014.2 mb 0.00 in0.0 mm 0.00 in0.0 mm 0.00 in0.0 mm
08:46 PM 57.7°F14.3°C 53.2°F11.8°C 85% Calm Calm 2.0 mph3.2 kmh 29.95 in1014.2 mb 0.00 in0.0 mm 0.00 in0.0 mm 0.00 in0.0 mm
08:51 PM 57.6°F14.2°C 53.1°F11.7°C 85% Calm Calm 2.0 mph3.2 kmh 29.95 in1014.2 mb 0.00 in0.0 mm 0.00 in0.0 mm 0.00 in0.0 mm
08:56 PM 57.6°F14.2°C 53.1°F11.7°C 85% 0.2 mph NW0.3 kmh NW 1.1 mph1.8 kmh 29.95 in1014.2 mb 0.00 in0.0 mm 0.00 in0.0 mm 0.00 in0.0 mm
09:01 PM 57.4°F14.1°C 52.9°F11.6°C 85% 0.9 mph NW1.4 kmh NW 2.0 mph3.2 kmh 29.96 in1014.6 mb 0.00 in0.0 mm 0.00 in0.0 mm 0.00 in0.0 mm
09:06 PM 57.4°F14.1°C 52.9°F11.6°C 85% 1.3 mph NW2.1 kmh NW 2.0 mph3.2 kmh 29.96 in1014.6 mb 0.00 in0.0 mm 0.00 in0.0 mm 0.00 in0.0 mm
09:11 PM 57.4°F14.1°C 53.2°F11.8°C 86% 1.1 mph NW1.8 kmh NW 3.1 mph5.0 kmh 29.96 in1014.6 mb 0.00 in0.0 mm 0.00 in0.0 mm 0.00 in0.0 mm
09:16 PM 57.4°F14.1°C 53.2°F11.8°C 86% 0.9 mph NW1.4 kmh NW 3.1 mph5.0 kmh 29.96 in1014.6 mb 0.00 in0.0 mm 0.00 in0.0 mm 0.00 in0.0 mm
09:21 PM 57.4°F14.1°C 53.2°F11.8°C 86% 0.9 mph NNW1.4 kmh NNW 3.1 mph5.0 kmh 29.96 in1014.6 mb 0.00 in0.0 mm 0.00 in0.0 mm 0.00 in0.0 mm
09:26 PM 57.4°F14.1°C 53.2°F11.8°C 86% 1.1 mph N1.8 kmh N 3.1 mph5.0 kmh 29.96 in1014.6 mb 0.00 in0.0 mm 0.00 in0.0 mm 0.00 in0.0 mm
09:31 PM 57.6°F14.2°C 53.4°F11.9°C 86% 0.2 mph NW0.3 kmh NW 3.1 mph5.0 kmh 29.96 in1014.6 mb 0.00 in0.0 mm 0.00 in0.0 mm 0.00 in0.0 mm
09:36 PM 57.6°F14.2°C 53.4°F11.9°C 86% 0.4 mph NNW0.6 kmh NNW 3.1 mph5.0 kmh 29.96 in1014.6 mb 0.00 in0.0 mm 0.00 in0.0 mm 0.00 in0.0 mm
09:41 PM 57.6°F14.2°C 53.4°F11.9°C 86% 0.2 mph N0.3 kmh N 2.0 mph3.2 kmh 29.95 in1014.2 mb 0.00 in0.0 mm 0.00 in0.0 mm 0.00 in0.0 mm
09:46 PM 57.7°F14.3°C 53.2°F11.8°C 85% Calm Calm 2.0 mph3.2 kmh 29.96 in1014.6 mb 0.00 in0.0 mm 0.00 in0.0 mm 0.00 in0.0 mm
09:51 PM 57.7°F14.3°C 53.2°F11.8°C 85% 0.2 mph NW0.3 kmh NW 2.0 mph3.2 kmh 29.96 in1014.6 mb 0.00 in0.0 mm 0.00 in0.0 mm 0.00 in0.0 mm
09:56 PM 57.9°F14.4°C 53.4°F11.9°C 85% 0.9 mph NW1.4 kmh NW 2.0 mph3.2 kmh 29.96 in1014.6 mb 0.00 in0.0 mm 0.00 in0.0 mm 0.00 in0.0 mm
10:01 PM 57.9°F14.4°C 53.4°F11.9°C 85% Calm Calm 2.0 mph3.2 kmh 29.96 in1014.6 mb 0.00 in0.0 mm 0.00 in0.0 mm 0.00 in0.0 mm
10:06 PM 57.9°F14.4°C 53.4°F11.9°C 85% 0.9 mph WNW1.4 kmh WNW 3.1 mph5.0 kmh 29.96 in1014.6 mb 0.00 in0.0 mm 0.00 in0.0 mm 0.00 in0.0 mm
10:11 PM 57.9°F14.4°C 53.4°F11.9°C 85% Calm Calm 3.1 mph5.0 kmh 29.96 in1014.6 mb 0.00 in0.0 mm 0.00 in0.0 mm 0.00 in0.0 mm
10:16 PM 57.9°F14.4°C 53.4°F11.9°C 85% 0.9 mph WSW1.4 kmh WSW 3.1 mph5.0 kmh 29.96 in1014.6 mb 0.00 in0.0 mm 0.00 in0.0 mm 0.00 in0.0 mm
10:21 PM 57.9°F14.4°C 53.4°F11.9°C 85% 1.8 mph NNW2.9 kmh NNW 4.3 mph6.9 kmh 29.96 in1014.6 mb 0.00 in0.0 mm 0.00 in0.0 mm 0.00 in0.0 mm
10:26 PM 57.9°F14.4°C 53.4°F11.9°C 85% Calm Calm 3.1 mph5.0 kmh 29.95 in1014.2 mb 0.00 in0.0 mm 0.00 in0.0 mm 0.00 in0.0 mm
10:31 PM 58.1°F14.5°C 53.6°F12.0°C 85% Calm Calm -- 29.96 in1014.6 mb 0.00 in0.0 mm 0.00 in0.0 mm 0.00 in0.0 mm
10:36 PM 58.1°F14.5°C 53.6°F12.0°C 85% Calm Calm 2.0 mph3.2 kmh 29.96 in1014.6 mb 0.00 in0.0 mm 0.00 in0.0 mm 0.00 in0.0 mm
10:41 PM 58.1°F14.5°C 53.6°F12.0°C 85% Calm Calm 1.1 mph1.8 kmh 29.96 in1014.6 mb 0.00 in0.0 mm 0.00 in0.0 mm 0.00 in0.0 mm
10:46 PM 58.3°F14.6°C 53.8°F12.1°C 85% 0.4 mph NW0.6 kmh NW 2.0 mph3.2 kmh 29.96 in1014.6 mb 0.00 in0.0 mm 0.00 in0.0 mm 0.00 in0.0 mm
10:51 PM 58.3°F14.6°C 53.8°F12.1°C 85% Calm Calm 2.0 mph3.2 kmh 29.96 in1014.6 mb 0.00 in0.0 mm 0.00 in0.0 mm 0.00 in0.0 mm
10:56 PM 58.3°F14.6°C 53.8°F12.1°C 85% 1.1 mph NW1.8 kmh NW 2.0 mph3.2 kmh 29.96 in1014.6 mb 0.00 in0.0 mm 0.00 in0.0 mm 0.00 in0.0 mm
11:01 PM 58.3°F14.6°C 53.8°F12.1°C 85% Calm Calm 2.0 mph3.2 kmh 29.95 in1014.2 mb 0.00 in0.0 mm 0.00 in0.0 mm 0.00 in0.0 mm
11:06 PM 58.3°F14.6°C 53.8°F12.1°C 85% Calm Calm 1.1 mph1.8 kmh 29.96 in1014.6 mb 0.00 in0.0 mm 0.00 in0.0 mm 0.00 in0.0 mm
11:11 PM 58.3°F14.6°C 53.8°F12.1°C 85% Calm Calm -- 29.96 in1014.6 mb 0.00 in0.0 mm 0.00 in0.0 mm 0.00 in0.0 mm
11:16 PM 58.3°F14.6°C 53.8°F12.1°C 85% Calm Calm -- 29.96 in1014.6 mb 0.00 in0.0 mm 0.00 in0.0 mm 0.00 in0.0 mm
11:21 PM 58.3°F14.6°C 53.8°F12.1°C 85% Calm Calm -- 29.96 in1014.6 mb 0.00 in0.0 mm 0.00 in0.0 mm 0.00 in0.0 mm
11:26 PM 58.3°F14.6°C 53.8°F12.1°C 85% Calm Calm 1.1 mph1.8 kmh 29.96 in1014.6 mb 0.00 in0.0 mm 0.00 in0.0 mm 0.00 in0.0 mm
11:31 PM 58.3°F14.6°C 53.8°F12.1°C 85% Calm Calm -- 29.95 in1014.2 mb 0.00 in0.0 mm 0.00 in0.0 mm 0.00 in0.0 mm
11:36 PM 58.3°F14.6°C 53.8°F12.1°C 85% 0.4 mph NW0.6 kmh NW 2.0 mph3.2 kmh 29.96 in1014.6 mb 0.00 in0.0 mm 0.00 in0.0 mm 0.00 in0.0 mm
11:41 PM 58.3°F14.6°C 53.8°F12.1°C 85% Calm Calm 2.0 mph3.2 kmh 29.96 in1014.6 mb 0.00 in0.0 mm 0.00 in0.0 mm 0.00 in0.0 mm
11:46 PM 58.3°F14.6°C 53.8°F12.1°C 85% 0.2 mph NW0.3 kmh NW 1.1 mph1.8 kmh 29.96 in1014.6 mb 0.00 in0.0 mm 0.00 in0.0 mm 0.00 in0.0 mm
11:51 PM 58.3°F14.6°C 53.8°F12.1°C 85% 0.2 mph N0.3 kmh N 1.1 mph1.8 kmh 29.96 in1014.6 mb 0.00 in0.0 mm 0.00 in0.0 mm 0.00 in0.0 mm
11:56 PM 58.3°F14.6°C 53.8°F12.1°C 85% Calm Calm -- 29.96 in1014.6 mb 0.00 in0.0 mm 0.00 in0.0 mm 0.00 in0.0 mm